Irons, MI (49644)

4:12 PM EDT on July 06, 2015 (GMT -0400)
Manistee Nat'l Forest | | Change Station
CLOSE
Current Station
Personal Weather Station
Location: Irons, MI
Elevation: 787 ft
Nearby Weather Stations

Elev 787 ft 44.13 °N, 85.97 °W | Updated 18 seconds ago

Partly Cloudy
Partly Cloudy
85.1 °F
Feels Like 88 °F
N
2.2
Wind Variable Wind from ESE
Gusts 6.9 mph

Today
High -- | Low -- °F
--% Chance of Precip.
Yesterday
High -- | Low -- °F
Precip. -- in
6:07 AM 9:29 PM
Waning Gibbous, 72% visible
Pressure 29.89 in
Visibility 8.0 miles
Clouds Scattered Clouds 4800 ft
Mostly Cloudy 5000 ft
Heat Index 88 °F
Dew Point 67 °F
Humidity 54%
Rainfall 0.00 in
Snow Depth Not available.
UV 5 out of 12
Pollen 5.00 out of 12
Air Quality Not available.
Flu Activity Not available.
METAR KMBL 061955Z AUTO 20012G21KT 8SM SCT048 BKN050 28/17 A2989 RMK AO1

More Conditions Fewer Conditions

Pressure 29.89 in
Visibility 8.0 miles
Clouds Scattered Clouds 4800 ft
Mostly Cloudy 5000 ft
Heat Index 88 °F
Dew Point 67 °F
Humidity 54%
Rainfall 0.00 in
Snow Depth Not available.
UV 5 out of 12
Pollen 5.00 out of 12
Air Quality Not available.
Flu Activity Not available.
METAR KMBL 061955Z AUTO 20012G21KT 8SM SCT048 BKN050 28/17 A2989 RMK AO1

More Conditions Fewer Conditions

10-Day Weather Forecast

×

Almanac

Astronomy

Jul. 06, 2015 Rise Set
Actual Time
Civil Twilight
Nautical Twilight
Astronomical Twilight
Moon
Length of Visible Light
Length of Day
Tomorrow will be .
, % of the Moon is Illuminated

Today's Extremes

State Highs State Lows

Community

WunderPhotos

Upload Photos

1,835,625 photos uploaded!

WunderBlogs® & News

Nearby

Air Quality

  Air Quality AQ Index Pollutant
Not available.

Snow Depth

Station Depth Elevation

Earthquake Activity

City Distance Mag. Time & Date
Minimum magnitude displayed is 2.5.

Coastal Water Temperatures

Place Temperature

Stations

Nearby Weather Stations

Station Location Temp. Windchill Dew Point Humidity Wind Precip. Elev Updated Type